Trust, North Carolina
Current Conditions -  °F | °C
As of 4:54 AM on Friday 19 Dec 2014 (Local Time) from KAVL Reporting Station
Clear Clear  
Wind Chill: 27°   Ceiling: Unl
Heat Index: 35°   Visibility: 10mi
Dew Point: 26°   Wind: 12mph
Humidity: 70%   Direction: 320°NW
Pressure: 30.11"   Gusts: NA
Location:  35.8037°N, 82.868°W
Report Text: KAVL 190954Z AUTO 32010KT 10SM CLR 02/M03 A3011 RMK AO2 SLP195 T00171033
Loading
Personal Weather Stations






























Interactive Weather Map New forecast layout! Learn more

10-Day Weather Forecast

Advertisements
Track Severe Weather on mobile